Data for 12/23/2009

Time Sea-Level Adjusted Pressure Absolute Pressure Temperature Relative Humidity Dew Point   
(mb) (inHg) (mb) (inHg) (C) (F) (%) (C) (F)
00:05 1014 29.94 843 24.89 -5 23 90 -6.4 20.5
00:10 1014 29.94 843 24.89 -4.9 23.1 90 -6.4 20.6
00:15 1014 29.94 843 24.89 -4.9 23.2 91 -6.2 20.8
00:20 1014 29.94 843 24.89 -4.9 23.2 90 -6.3 20.7
00:25 1014 29.94 843 24.89 -4.9 23.1 91 -6.2 20.9
00:30 1014 29.94 843 24.89 -4.9 23.1 91 -6.1 21
00:35 1014 29.94 843 24.89 -4.8 23.3 91 -6 21.2
00:40 1014 29.94 843 24.89 -4.7 23.5 90 -6.1 21
00:45 1014 29.94 843 24.89 -4.8 23.4 91 -6.1 21
00:50 1014 29.94 843 24.89 -4.7 23.6 91 -6 21.2
00:55 1014 29.94 843 24.89 -4.6 23.7 91 -5.9 21.4
01:00 1014 29.94 843 24.89 -4.4 24.1 90 -5.8 21.5
01:05 1014 29.94 843 24.89 -4.3 24.3 90 -5.7 21.7
01:10 1014 29.94 843 24.89 -4.3 24.3 90 -5.7 21.7
01:15 1014 29.94 843 24.89 -4.3 24.3 89 -5.8 21.6
01:20 1014 29.94 843 24.89 -4.3 24.2 90 -5.7 21.7
01:25 1014 29.94 843 24.89 -4.3 24.3 89 -5.8 21.6
01:30 1014 29.94 843 24.89 -4.3 24.3 90 -5.8 21.6
01:35 1014 29.94 843 24.89 -4.2 24.4 89 -5.7 21.7
01:40 1014 29.94 843 24.89 -4.3 24.2 90 -5.7 21.7
01:45 1014 29.94 843 24.89 -4.4 24.2 90 -5.7 21.7
01:50 1014 29.94 843 24.89 -4.4 24.1 90 -5.8 21.6
01:55 1014 29.94 843 24.89 -4.4 24 91 -5.7 21.7
02:00 1014 29.94 843 24.89 -4.4 24.1 91 -5.7 21.7
02:05 1014 29.94 844 24.92 -4.5 24 91 -5.8 21.6
02:10 1014 29.94 844 24.92 -4.6 23.8 90 -6 21.3
02:15 1014 29.94 844 24.92 -4.9 23.2 93 -5.9 21.3
02:20 1014 29.94 844 24.92 -4.8 23.3 93 -5.9 21.4
02:25 1015 29.97 844 24.92 -4.9 23.2 93 -5.9 21.5
02:30 1015 29.97 844 24.92 -4.8 23.3 92 -5.9 21.4
02:35 1015 29.97 844 24.92 -4.9 23.1 92 -6 21.2
02:40 1015 29.97 844 24.92 -5.1 22.9 93 -6 21.2
02:45 1015 29.97 844 24.92 -4.9 23.1 93 -5.9 21.5
02:50 1015 29.97 844 24.92 -4.8 23.3 93 -5.8 21.6
02:55 1015 29.97 844 24.92 -4.7 23.5 93 -5.8 21.6
03:00 1015 29.97 844 24.92 -4.7 23.6 92 -5.7 21.7
03:05 1015 29.97 844 24.92 -4.6 23.7 92 -5.7 21.8
03:10 1015 29.97 844 24.92 -4.7 23.6 92 -5.8 21.6
03:15 1015 29.97 844 24.92 -4.7 23.5 93 -5.7 21.7
03:20 1015 29.97 844 24.92 -4.6 23.7 93 -5.6 21.9
03:25 1015 29.97 844 24.92 -4.5 23.8 92 -5.6 21.9
03:30 1015 29.97 844 24.92 -4.6 23.8 92 -5.7 21.7
03:35 1015 29.97 844 24.92 -4.8 23.4 93 -5.7 21.7
03:40 1015 29.97 844 24.92 -4.6 23.6 93 -5.6 21.9
03:45 1015 29.97 844 24.92 -4.6 23.8 92 -5.7 21.8
03:50 1015 29.97 845 24.95 -4.6 23.8 92 -5.7 21.7
03:55 1015 29.97 845 24.95 -4.6 23.8 92 -5.7 21.7
04:00 1015 29.97 845 24.95 -4.6 23.7 92 -5.7 21.7
04:05 1015 29.97 845 24.95 -4.7 23.6 92 -5.8 21.6
04:10 1015 29.97 845 24.95 -4.7 23.5 92 -5.7 21.7
04:15 1015 29.97 845 24.95 -4.7 23.6 92 -5.7 21.7
04:20 1015 29.97 845 24.95 -4.6 23.7 92 -5.7 21.7
04:25 1015 29.97 845 24.95 -4.6 23.7 92 -5.7 21.7
04:30 1015 29.97 845 24.95 -4.7 23.6 92 -5.8 21.6
04:35 1015 29.97 845 24.95 -4.7 23.5 92 -5.9 21.5
04:40 1015 29.97 845 24.95 -4.8 23.4 92 -5.9 21.4
04:45 1015 29.97 845 24.95 -4.8 23.4 92 -5.8 21.5
04:50 1016 30 845 24.95 -4.8 23.3 93 -5.8 21.5
04:55 1016 30 845 24.95 -4.8 23.3 92 -5.9 21.4
05:00 1016 30 845 24.95 -4.9 23.2 92 -6.1 21.1
05:05 1016 30 845 24.95 -5 23.1 92 -6.1 21
05:10 1016 30 845 24.95 -5 23 92 -6.1 21.1
05:15 1016 30 845 24.95 -5 23 92 -6.1 21
05:20 1016 30 845 24.95 -5 23 92 -6.1 21
05:25 1016 30 845 24.95 -5 22.9 92 -6.1 21
05:30 1016 30 845 24.95 -5 23 92 -6.1 21
05:35 1016 30 845 24.95 -5.1 22.9 92 -6.1 21
05:40 1016 30 845 24.95 -5.2 22.7 93 -6.2 20.9
05:45 1016 30 845 24.95 -5.1 22.8 93 -6.1 21
05:50 1016 30 845 24.95 -5.2 22.6 93 -6.3 20.7
05:55 1016 30 845 24.95 -5.4 22.3 93 -6.3 20.6
06:00 1016 30 845 24.95 -5.4 22.3 93 -6.3 20.7
06:05 1016 30 846 24.98 -5.3 22.5 93 -6.3 20.7
06:10 1016 30 846 24.98 -5.4 22.2 93 -6.3 20.6
06:15 1016 30 846 24.98 -5.6 22 94 -6.3 20.6
06:20 1016 30 846 24.98 -5.5 22.1 94 -6.3 20.6
06:25 1017 30.03 846 24.98 -5.4 22.3 94 -6.2 20.8
06:30 1017 30.03 846 24.98 -5.4 22.4 94 -6.2 20.8
06:35 1017 30.03 846 24.98 -5.4 22.3 93 -6.3 20.6
06:40 1017 30.03 846 24.98 -5.5 22.1 93 -6.5 20.3
06:45 1017 30.03 846 24.98 -5.6 21.9 92 -6.6 20
06:50 1017 30.03 846 24.98 -5.8 21.5 93 -6.9 19.6
06:55 1017 30.03 846 24.98 -6 21.2 92 -7 19.4
07:00 1017 30.03 846 24.98 -6.2 20.9 92 -7.2 19
07:05 1017 30.03 846 24.98 -6.2 20.9 92 -7.2 19
07:10 1017 30.03 846 24.98 -6.2 20.9 92 -7.2 19
07:15 1017 30.03 846 24.98 -6.1 21 92 -7.2 19
07:20 1017 30.03 847 25.01 -6.1 21 92 -7.2 19
07:25 1018 30.06 847 25.01 -6 21.2 92 -7.1 19.1
07:30 1018 30.06 847 25.01 -6 21.2 90 -7.3 18.8
07:35 1018 30.06 847 25.01 -6.2 20.9 90 -7.5 18.4
07:40 1018 30.06 847 25.01 -6.5 20.3 90 -7.8 17.9
07:45 1018 30.06 847 25.01 -6.8 19.8 90 -8.1 17.4
07:50 1018 30.06 847 25.01 -6.9 19.6 89 -8.4 16.9
07:55 1018 30.06 847 25.01 -7.2 19 89 -8.7 16.3
08:00 1018 30.06 847 25.01 -7.5 18.5 89 -9 15.8
08:05 1018 30.06 847 25.01 -7.7 18.2 89 -9.2 15.4
08:10 1018 30.06 847 25.01 -7.7 18.1 88 -9.3 15.2
08:15 1018 30.06 847 25.01 -7.8 17.9 87 -9.6 14.7
08:20 1018 30.06 847 25.01 -7.8 18 87 -9.5 14.9
08:25 1018 30.06 848 25.04 -7.7 18.2 86 -9.6 14.8
08:30 1018 30.06 848 25.04 -7.7 18.2 85 -9.9 14.3
08:35 1019 30.09 848 25.04 -7.9 17.8 84 -10.1 13.7
08:40 1019 30.09 848 25.04 -8 17.6 83 -10.3 13.4
08:45 1019 30.09 848 25.04 -8.1 17.4 83 -10.5 13.1
08:50 1019 30.09 848 25.04 -8.3 17 83 -10.7 12.8
08:55 1019 30.09 848 25.04 -8.4 16.8 83 -10.8 12.5
09:00 1019 30.09 848 25.04 -8.4 17 83 -10.8 12.6
09:05 1019 30.09 848 25.04 -8.3 17.1 82 -10.8 12.6
09:10 1019 30.09 848 25.04 -8.2 17.3 82 -10.7 12.7
09:15 1019 30.09 848 25.04 -8.3 17.1 82 -10.9 12.5
09:20 1019 30.09 849 25.07 -8.3 17.1 82 -10.9 12.5
09:25 1019 30.09 849 25.07 -8.2 17.2 81 -10.9 12.4
09:30 1019 30.09 849 25.07 -8.2 17.3 81 -10.9 12.4
09:35 1020 30.12 849 25.07 -8.2 17.3 80 -11 12.3
09:40 1020 30.12 849 25.07 -8.4 17 81 -11.1 12
09:45 1020 30.12 849 25.07 -8.3 17 80 -11.2 11.8
09:50 1020 30.12 849 25.07 -8 17.6 78 -11.3 11.7
09:55 1020 30.12 849 25.07 -8 17.6 77 -11.3 11.6
10:00 1020 30.12 849 25.07 -8.2 17.3 77 -11.5 11.3
10:05 1020 30.12 849 25.07 -8.3 17 77 -11.7 11
10:10 1020 30.12 849 25.07 -8.5 16.8 78 -11.7 10.9
10:15 1020 30.12 849 25.07 -8.6 16.6 77 -12 10.5
10:20 1020 30.12 849 25.07 -8.1 17.5 73 -12 10.3
10:25 1020 30.12 849 25.07 -8.7 16.3 75 -12.4 9.6
10:30 1020 30.12 849 25.07 -9.2 15.5 76 -12.7 9.1
10:35 1020 30.12 849 25.07 -9.1 15.5 76 -12.7 9.1
10:40 1020 30.12 849 25.07 -9 15.8 74 -12.8 8.9
10:45 1020 30.12 849 25.07 -8.9 16 75 -12.6 9.3
10:50 1020 30.12 849 25.07 -9 15.9 75 -12.6 9.3
10:55 1020 30.12 849 25.07 -9.1 15.6 75 -12.7 9.2
11:00 1020 30.12 849 25.07 -8.7 16.3 74 -12.6 9.3
11:05 1020 30.12 849 25.07 -8.4 16.9 72 -12.6 9.3
11:10 1020 30.12 849 25.07 -8.7 16.3 74 -12.6 9.3
11:15 1020 30.12 849 25.07 -8.8 16.2 73 -12.8 8.9
11:20 1020 30.12 849 25.07 -8.9 16 74 -12.7 9.1
11:25 1020 30.12 849 25.07 -8.6 16.6 72 -12.8 9
11:30 1020 30.12 849 25.07 -8.6 16.6 73 -12.6 9.4
11:35 1020 30.12 849 25.07 -8.8 16.2 73 -12.7 9.1
11:40 1020 30.12 849 25.07 -8.9 15.9 75 -12.7 9.2
11:45 1020 30.12 849 25.07 -9 15.8 75 -12.7 9.1
11:50 1020 30.12 849 25.07 -8.8 16.1 73 -12.8 8.9
11:55 1020 30.12 849 25.07 -8.5 16.7 72 -12.7 9.1
12:00 1020 30.12 849 25.07 -8.3 17.1 71 -12.7 9.2
12:05 1020 30.12 849 25.07 -8.1 17.4 71 -12.5 9.4
12:10 1020 30.12 849 25.07 -8.2 17.3 70 -12.7 9.2
12:15 1020 30.12 849 25.07 -8.4 16.9 73 -12.5 9.5
12:20 1020 30.12 849 25.07 -8.5 16.6 73 -12.6 9.4
12:25 1020 30.12 849 25.07 -8.6 16.5 73 -12.6 9.4
12:30 1020 30.12 849 25.07 -8.7 16.4 72 -12.9 8.8
12:35 1020 30.12 849 25.07 -8.9 15.9 72 -13.1 8.5
12:40 1020 30.12 849 25.07 -8.9 16.1 73 -12.9 8.9
12:45 1020 30.12 849 25.07 -8.5 16.7 72 -12.7 9.1
12:50 1020 30.12 849 25.07 -8.4 16.9 72 -12.6 9.4
12:55 1020 30.12 849 25.07 -8.6 16.5 72 -12.9 8.9
13:00 1020 30.12 849 25.07 -8.7 16.4 72 -12.8 8.9
13:05 1020 30.12 850 25.1 -8.7 16.4 73 -12.7 9.2
13:10 1020 30.12 850 25.1 -8.8 16.1 75 -12.4 9.7
13:15 1020 30.12 850 25.1 -8.9 15.9 74 -12.7 9.1
13:20 1020 30.12 850 25.1 -9.1 15.7 75 -12.8 9
13:25 1020 30.12 850 25.1 -9 15.8 74 -12.8 8.9
13:30 1020 30.12 850 25.1 -9 15.7 73 -13 8.6
13:35 1020 30.12 850 25.1 -9.3 15.4 76 -12.8 9
13:40 1021 30.15 850 25.1 -9.2 15.5 75 -12.9 8.8
13:45 1021 30.15 850 25.1 -9.1 15.7 73 -13 8.6
13:50 1021 30.15 850 25.1 -9.4 15.1 76 -12.8 8.9
13:55 1021 30.15 850 25.1 -9.4 15.1 76 -12.8 9
14:00 1021 30.15 850 25.1 -9.3 15.3 74 -13.2 8.3
14:05 1021 30.15 850 25.1 -9.6 14.8 76 -13.1 8.5
14:10 1021 30.15 850 25.1 -9.6 14.8 75 -13.2 8.3
14:15 1021 30.15 850 25.1 -9.6 14.7 77 -13 8.6
14:20 1021 30.15 850 25.1 -9.6 14.7 76 -13.1 8.4
14:25 1021 30.15 850 25.1 -9.7 14.5 76 -13.3 8.1
14:30 1021 30.15 850 25.1 -9.9 14.3 76 -13.3 8.1
14:35 1021 30.15 850 25.1 -9.9 14.1 77 -13.2 8.3
14:40 1021 30.15 850 25.1 -10.1 13.9 77 -13.3 8
14:45 1021 30.15 850 25.1 -10.2 13.6 79 -13.2 8.3
14:50 1021 30.15 850 25.1 -10.1 13.8 80 -13 8.6
14:55 1021 30.15 850 25.1 -10.3 13.5 79 -13.3 8.1
15:00 1021 30.15 850 25.1 -10.3 13.4 79 -13.2 8.2
15:05 1021 30.15 850 25.1 -10.4 13.4 80 -13.2 8.2
15:10 1021 30.15 850 25.1 -10.5 13.1 81 -13.2 8.3
15:15 1021 30.15 851 25.13 -10.3 13.4 80 -13.1 8.4
15:20 1021 30.15 851 25.13 -10.1 13.7 78 -13.2 8.2
15:25 1021 30.15 851 25.13 -10.3 13.5 79 -13.2 8.2
15:30 1022 30.18 851 25.13 -10.7 12.7 82 -13.2 8.2
15:35 1022 30.18 851 25.13 -10.5 13.1 80 -13.3 8
15:40 1022 30.18 851 25.13 -10.4 13.3 78 -13.6 7.6
15:45 1022 30.18 851 25.13 -10.5 13.2 77 -13.7 7.3
15:50 1022 30.18 851 25.13 -10.4 13.2 77 -13.8 7.2
15:55 1022 30.18 851 25.13 -10.6 12.9 77 -13.9 7
16:00 1022 30.18 851 25.13 -10.7 12.8 78 -13.8 7.2
16:05 1022 30.18 851 25.13 -10.7 12.7 79 -13.7 7.3
16:10 1022 30.18 851 25.13 -10.8 12.6 78 -13.8 7.1
16:15 1022 30.18 851 25.13 -10.9 12.4 79 -13.8 7.2
16:20 1022 30.18 851 25.13 -10.9 12.4 80 -13.8 7.2
16:25 1022 30.18 851 25.13 -11 12.3 80 -13.8 7.2
16:30 1022 30.18 851 25.13 -10.9 12.4 80 -13.8 7.2
16:35 1022 30.18 851 25.13 -11.1 12 80 -13.9 7
16:40 1022 30.18 851 25.13 -11.2 11.8 80 -13.9 6.9
16:45 1022 30.18 851 25.13 -11.2 11.8 81 -13.9 6.9
16:50 1022 30.18 851 25.13 -11.3 11.7 80 -14 6.8
16:55 1022 30.18 851 25.13 -11.3 11.7 81 -13.9 7
17:00 1022 30.18 851 25.13 -11.3 11.7 81 -14 6.9
17:05 1022 30.18 851 25.13 -11.3 11.7 81 -13.9 7
17:10 1022 30.18 851 25.13 -11.2 11.8 81 -13.8 7.1
17:15 1022 30.18 851 25.13 -11.3 11.7 81 -13.9 7.1
17:20 1022 30.18 851 25.13 -11.4 11.6 81 -14 6.9
17:25 1022 30.18 851 25.13 -11.8 10.9 84 -13.9 6.9
17:30 1022 30.18 851 25.13 -11.7 10.9 85 -13.8 7.2
17:35 1022 30.18 851 25.13 -11.7 11 83 -14 6.9
17:40 1022 30.18 851 25.13 -11.5 11.3 82 -14 6.8
17:45 1022 30.18 851 25.13 -11.9 10.5 84 -14.2 6.5
17:50 1022 30.18 851 25.13 -12 10.3 84 -14.3 6.3
17:55 1022 30.18 851 25.13 -11.9 10.6 84 -14 6.8
18:00 1022 30.18 851 25.13 -11.9 10.6 85 -14 6.8
18:05 1022 30.18 851 25.13 -11.7 10.9 83 -14.1 6.6
18:10 1022 30.18 851 25.13 -11.7 11 83 -14 6.8
18:15 1022 30.18 851 25.13 -11.8 10.8 84 -13.9 7
18:20 1022 30.18 851 25.13 -12.1 10.3 85 -14.1 6.6
18:25 1022 30.18 852 25.16 -12.3 9.9 87 -14.1 6.6
18:30 1022 30.18 852 25.16 -12.1 10.2 86 -14 6.8
18:35 1022 30.18 852 25.16 -12.2 10.1 86 -14.1 6.6
18:40 1022 30.18 852 25.16 -12.1 10.1 86 -14 6.8
18:45 1022 30.18 852 25.16 -12 10.3 85 -14 6.7
18:50 1022 30.18 852 25.16 -11.9 10.7 84 -14 6.7
18:55 1023 30.21 852 25.16 -11.8 10.9 83 -14 6.7
19:00 1023 30.21 852 25.16 -12 10.4 84 -14.2 6.5
19:05 1023 30.21 852 25.16 -12.1 10.3 85 -14.1 6.6
19:10 1023 30.21 852 25.16 -12 10.3 86 -13.9 6.9
19:15 1023 30.21 852 25.16 -11.8 10.8 85 -13.9 7.1
19:20 1023 30.21 852 25.16 -11.8 10.9 83 -14.1 6.6
19:25 1022 30.18 852 25.16 -12 10.4 85 -14.1 6.6
19:30 1022 30.18 852 25.16 -12.1 10.1 86 -14 6.8
19:35 1022 30.18 852 25.16 -12.1 10.2 86 -14 6.9
19:40 1022 30.18 852 25.16 -12.2 10.1 87 -13.9 6.9
19:45 1022 30.18 852 25.16 -12.2 10.1 87 -13.9 7
19:50 1022 30.18 852 25.16 -12.2 10.1 87 -13.9 6.9
19:55 1022 30.18 852 25.16 -12.2 10.1 87 -13.9 6.9
20:00 1022 30.18 852 25.16 -12.1 10.2 87 -13.8 7.1
20:05 1022 30.18 852 25.16 -12.2 10 88 -13.9 7
20:10 1022 30.18 852 25.16 -12.3 9.8 89 -13.8 7.1
20:15 1022 30.18 852 25.16 -12.1 10.3 87 -13.9 7
20:20 1022 30.18 852 25.16 -12.2 10.1 87 -13.9 7.1
20:25 1022 30.18 851 25.13 -12.1 10.2 87 -13.9 7.1
20:30 1022 30.18 852 25.16 -12.2 10.1 87 -14 6.8
20:35 1022 30.18 852 25.16 -12.2 10 88 -13.8 7.2
20:40 1022 30.18 852 25.16 -12.1 10.3 88 -13.7 7.3
20:45 1022 30.18 852 25.16 -12.1 10.2 88 -13.8 7.2
20:50 1022 30.18 852 25.16 -11.9 10.5 88 -13.5 7.6
20:55 1022 30.18 852 25.16 -11.7 11 86 -13.6 7.6
21:00 1022 30.18 852 25.16 -11.7 10.9 86 -13.6 7.5
21:05 1022 30.18 852 25.16 -11.9 10.7 87 -13.7 7.4
21:10 1022 30.18 852 25.16 -12.1 10.2 87 -13.9 7
21:15 1022 30.18 852 25.16 -12 10.5 87 -13.8 7.2
21:20 1023 30.21 852 25.16 -11.9 10.6 86 -13.7 7.3
21:25 1023 30.21 852 25.16 -12.1 10.2 86 -14 6.9
21:30 1023 30.21 852 25.16 -12.4 9.6 87 -14.2 6.4
21:35 1023 30.21 852 25.16 -12.7 9.2 87 -14.3 6.2
21:40 1023 30.21 852 25.16 -12.8 9 89 -14.2 6.4
21:45 1023 30.21 852 25.16 -12.4 9.7 87 -14.1 6.6
21:50 1023 30.21 852 25.16 -12.2 10.1 85 -14.2 6.5
21:55 1023 30.21 852 25.16 -12.1 10.2 85 -14.2 6.5
22:00 1023 30.21 852 25.16 -12.1 10.3 84 -14.3 6.3
22:05 1023 30.21 852 25.16 -12.2 10 86 -14.2 6.5
22:10 1023 30.21 852 25.16 -12.2 10.1 85 -14.2 6.5
22:15 1023 30.21 852 25.16 -12.2 10.1 85 -14.2 6.4
22:20 1023 30.21 852 25.16 -12.3 9.8 84 -14.5 6
22:25 1023 30.21 852 25.16 -12.7 9.1 86 -14.5 5.9
22:30 1023 30.21 852 25.16 -12.6 9.4 86 -14.5 6
22:35 1023 30.21 852 25.16 -12.5 9.6 85 -14.4 6
22:40 1023 30.21 852 25.16 -12.4 9.6 84 -14.6 5.8
22:45 1023 30.21 852 25.16 -12.5 9.5 85 -14.5 5.9
22:50 1023 30.21 852 25.16 -12.6 9.3 86 -14.6 5.8
22:55 1023 30.21 852 25.16 -12.5 9.4 85 -14.6 5.7
23:00 1023 30.21 852 25.16 -12.4 9.8 84 -14.6 5.8
23:05 1023 30.21 852 25.16 -12.4 9.7 84 -14.5 5.8
23:10 1023 30.21 852 25.16 -12.3 9.8 84 -14.5 5.9
23:15 1023 30.21 852 25.16 -12.3 9.8 84 -14.5 5.9
23:20 1023 30.21 852 25.16 -12.4 9.7 84 -14.6 5.8
23:25 1023 30.21 852 25.16 -12.4 9.7 85 -14.5 5.9
23:30 1023 30.21 852 25.16 -12.4 9.7 85 -14.5 6
23:35 1023 30.21 852 25.16 -12.5 9.6 85 -14.5 5.9
23:40 1023 30.21 852 25.16 -12.5 9.5 86 -14.5 6
23:45 1023 30.21 852 25.16 -12.6 9.3 86 -14.5 5.9
23:50 1023 30.21 852 25.16 -12.5 9.4 84 -14.6 5.6
23:55 1023 30.21 852 25.16 -12.8 9 86 -14.6 5.7
24:00 1023 30.21 852 25.16 -12.8 9.1 86 -14.7 5.6